sensor_id;sensor_type;location;lat;lon;timestamp;P1;durP1;ratioP1;P2;durP2;ratioP2
7899;SDS011;3995;50.856;4.404;2023-03-20T00:01:56;8.30;;;5.07;;
7899;SDS011;3995;50.856;4.404;2023-03-20T00:04:43;5.47;;;4.95;;
7899;SDS011;3995;50.856;4.404;2023-03-20T00:07:10;7.30;;;4.83;;
7899;SDS011;3995;50.856;4.404;2023-03-20T00:09:37;9.50;;;5.27;;
7899;SDS011;3995;50.856;4.404;2023-03-20T00:12:05;6.57;;;5.03;;
7899;SDS011;3995;50.856;4.404;2023-03-20T00:14:32;10.07;;;5.73;;
7899;SDS011;3995;50.856;4.404;2023-03-20T00:17:00;7.50;;;5.33;;
7899;SDS011;3995;50.856;4.404;2023-03-20T00:19:35;6.67;;;4.93;;
7899;SDS011;3995;50.856;4.404;2023-03-20T00:22:04;6.83;;;5.20;;
7899;SDS011;3995;50.856;4.404;2023-03-20T00:24:31;8.67;;;4.90;;
7899;SDS011;3995;50.856;4.404;2023-03-20T00:26:58;7.43;;;4.87;;
7899;SDS011;3995;50.856;4.404;2023-03-20T00:29:27;7.97;;;5.57;;
7899;SDS011;3995;50.856;4.404;2023-03-20T00:31:56;6.37;;;5.20;;
7899;SDS011;3995;50.856;4.404;2023-03-20T00:34:24;7.93;;;5.53;;
7899;SDS011;3995;50.856;4.404;2023-03-20T00:36:55;11.43;;;5.47;;
7899;SDS011;3995;50.856;4.404;2023-03-20T00:39:25;8.63;;;5.37;;
7899;SDS011;3995;50.856;4.404;2023-03-20T00:41:53;8.57;;;5.23;;
7899;SDS011;3995;50.856;4.404;2023-03-20T00:44:22;9.50;;;5.70;;
7899;SDS011;3995;50.856;4.404;2023-03-20T00:46:53;8.43;;;5.23;;
7899;SDS011;3995;50.856;4.404;2023-03-20T00:49:23;6.60;;;4.80;;
7899;SDS011;3995;50.856;4.404;2023-03-20T00:51:53;7.83;;;5.30;;
7899;SDS011;3995;50.856;4.404;2023-03-20T00:54:20;7.40;;;4.80;;
7899;SDS011;3995;50.856;4.404;2023-03-20T00:56:50;6.23;;;4.50;;
7899;SDS011;3995;50.856;4.404;2023-03-20T00:59:21;11.43;;;5.63;;
7899;SDS011;3995;50.856;4.404;2023-03-20T01:01:51;8.10;;;5.57;;
7899;SDS011;3995;50.856;4.404;2023-03-20T01:04:19;7.10;;;5.50;;
7899;SDS011;3995;50.856;4.404;2023-03-20T01:06:47;9.03;;;5.13;;
7899;SDS011;3995;50.856;4.404;2023-03-20T01:09:14;9.60;;;5.13;;
7899;SDS011;3995;50.856;4.404;2023-03-20T01:11:42;12.50;;;6.10;;
7899;SDS011;3995;50.856;4.404;2023-03-20T01:14:13;5.47;;;4.97;;
7899;SDS011;3995;50.856;4.404;2023-03-20T01:16:42;11.40;;;5.07;;
7899;SDS011;3995;50.856;4.404;2023-03-20T01:19:09;7.27;;;5.13;;
7899;SDS011;3995;50.856;4.404;2023-03-20T01:21:37;6.87;;;4.83;;
7899;SDS011;3995;50.856;4.404;2023-03-20T01:24:04;8.43;;;5.23;;
7899;SDS011;3995;50.856;4.404;2023-03-20T01:26:33;10.33;;;6.00;;
7899;SDS011;3995;50.856;4.404;2023-03-20T01:29:02;8.33;;;4.97;;
7899;SDS011;3995;50.856;4.404;2023-03-20T01:31:31;11.37;;;6.27;;
7899;SDS011;3995;50.856;4.404;2023-03-20T01:33:58;11.70;;;6.00;;
7899;SDS011;3995;50.856;4.404;2023-03-20T01:36:25;8.50;;;6.00;;
7899;SDS011;3995;50.856;4.404;2023-03-20T01:38:54;11.97;;;5.73;;
7899;SDS011;3995;50.856;4.404;2023-03-20T01:41:24;7.43;;;5.40;;
7899;SDS011;3995;50.856;4.404;2023-03-20T01:43:52;8.13;;;5.90;;
7899;SDS011;3995;50.856;4.404;2023-03-20T01:46:21;11.97;;;7.07;;
7899;SDS011;3995;50.856;4.404;2023-03-20T01:49:03;8.27;;;6.35;;
7899;SDS011;3995;50.856;4.404;2023-03-20T01:51:34;9.40;;;6.95;;
7899;SDS011;3995;50.856;4.404;2023-03-20T01:54:03;10.47;;;6.67;;
7899;SDS011;3995;50.856;4.404;2023-03-20T01:56:33;9.57;;;6.60;;
7899;SDS011;3995;50.856;4.404;2023-03-20T01:59:05;10.67;;;6.93;;
7899;SDS011;3995;50.856;4.404;2023-03-20T02:01:37;10.27;;;6.43;;
7899;SDS011;3995;50.856;4.404;2023-03-20T02:04:07;12.40;;;6.27;;
7899;SDS011;3995;50.856;4.404;2023-03-20T02:06:36;10.20;;;6.07;;
7899;SDS011;3995;50.856;4.404;2023-03-20T02:09:04;12.67;;;6.60;;
7899;SDS011;3995;50.856;4.404;2023-03-20T02:11:32;12.20;;;7.20;;
7899;SDS011;3995;50.856;4.404;2023-03-20T02:14:00;14.17;;;5.83;;
7899;SDS011;3995;50.856;4.404;2023-03-20T02:16:27;9.80;;;5.83;;
7899;SDS011;3995;50.856;4.404;2023-03-20T02:18:55;10.67;;;7.13;;
7899;SDS011;3995;50.856;4.404;2023-03-20T02:24:39;9.33;;;7.00;;
7899;SDS011;3995;50.856;4.404;2023-03-20T02:27:23;8.50;;;6.40;;
7899;SDS011;3995;50.856;4.404;2023-03-20T02:39:30;10.73;;;6.13;;
7899;SDS011;3995;50.856;4.404;2023-03-20T02:42:10;13.53;;;6.93;;
7899;SDS011;3995;50.856;4.404;2023-03-20T02:44:43;16.20;;;8.30;;
7899;SDS011;3995;50.856;4.404;2023-03-20T02:47:19;12.93;;;7.10;;
7899;SDS011;3995;50.856;4.404;2023-03-20T02:49:54;15.10;;;8.27;;
7899;SDS011;3995;50.856;4.404;2023-03-20T02:52:32;14.47;;;9.30;;
7899;SDS011;3995;50.856;4.404;2023-03-20T02:55:12;11.07;;;7.67;;
7899;SDS011;3995;50.856;4.404;2023-03-20T02:57:46;15.77;;;9.10;;
7899;SDS011;3995;50.856;4.404;2023-03-20T03:00:24;13.53;;;7.10;;
7899;SDS011;3995;50.856;4.404;2023-03-20T03:02:56;19.57;;;8.47;;
7899;SDS011;3995;50.856;4.404;2023-03-20T03:05:31;14.00;;;8.27;;
7899;SDS011;3995;50.856;4.404;2023-03-20T03:08:03;17.23;;;8.73;;
7899;SDS011;3995;50.856;4.404;2023-03-20T03:10:37;14.13;;;8.00;;
7899;SDS011;3995;50.856;4.404;2023-03-20T03:13:10;18.10;;;8.50;;
7899;SDS011;3995;50.856;4.404;2023-03-20T03:15:41;16.60;;;8.80;;
7899;SDS011;3995;50.856;4.404;2023-03-20T03:18:13;16.20;;;8.33;;
7899;SDS011;3995;50.856;4.404;2023-03-20T03:20:44;18.40;;;9.33;;
7899;SDS011;3995;50.856;4.404;2023-03-20T03:23:17;15.30;;;7.18;;
7899;SDS011;3995;50.856;4.404;2023-03-20T03:25:50;15.80;;;9.00;;
7899;SDS011;3995;50.856;4.404;2023-03-20T03:28:21;16.60;;;8.83;;
7899;SDS011;3995;50.856;4.404;2023-03-20T03:30:54;16.23;;;8.30;;
7899;SDS011;3995;50.856;4.404;2023-03-20T03:33:24;14.60;;;8.40;;
7899;SDS011;3995;50.856;4.404;2023-03-20T03:35:54;10.50;;;7.68;;
7899;SDS011;3995;50.856;4.404;2023-03-20T03:38:33;13.20;;;8.70;;
7899;SDS011;3995;50.856;4.404;2023-03-20T03:41:09;11.40;;;7.80;;
7899;SDS011;3995;50.856;4.404;2023-03-20T03:43:49;14.43;;;8.20;;
7899;SDS011;3995;50.856;4.404;2023-03-20T03:46:22;15.67;;;8.00;;
7899;SDS011;3995;50.856;4.404;2023-03-20T03:48:55;13.73;;;8.33;;
7899;SDS011;3995;50.856;4.404;2023-03-20T03:51:24;11.07;;;7.63;;
7899;SDS011;3995;50.856;4.404;2023-03-20T03:53:56;15.83;;;7.00;;
7899;SDS011;3995;50.856;4.404;2023-03-20T03:56:28;16.10;;;7.40;;
7899;SDS011;3995;50.856;4.404;2023-03-20T03:58:58;11.60;;;7.10;;
7899;SDS011;3995;50.856;4.404;2023-03-20T04:01:28;14.80;;;8.07;;
7899;SDS011;3995;50.856;4.404;2023-03-20T04:03:59;22.35;;;8.40;;
7899;SDS011;3995;50.856;4.404;2023-03-20T04:06:28;12.80;;;6.83;;
7899;SDS011;3995;50.856;4.404;2023-03-20T04:08:55;13.50;;;6.53;;
7899;SDS011;3995;50.856;4.404;2023-03-20T04:11:23;22.38;;;8.10;;
7899;SDS011;3995;50.856;4.404;2023-03-20T04:13:54;11.63;;;7.53;;
7899;SDS011;3995;50.856;4.404;2023-03-20T04:16:23;15.50;;;7.57;;
7899;SDS011;3995;50.856;4.404;2023-03-20T04:18:51;9.27;;;6.10;;
7899;SDS011;3995;50.856;4.404;2023-03-20T04:21:19;11.90;;;6.63;;
7899;SDS011;3995;50.856;4.404;2023-03-20T04:23:47;12.40;;;6.33;;
7899;SDS011;3995;50.856;4.404;2023-03-20T04:26:14;13.47;;;6.73;;
7899;SDS011;3995;50.856;4.404;2023-03-20T04:28:41;11.27;;;5.97;;
7899;SDS011;3995;50.856;4.404;2023-03-20T04:31:10;18.43;;;7.03;;
7899;SDS011;3995;50.856;4.404;2023-03-20T04:33:38;13.25;;;6.13;;
7899;SDS011;3995;50.856;4.404;2023-03-20T04:36:06;13.27;;;6.30;;
7899;SDS011;3995;50.856;4.404;2023-03-20T04:38:34;15.23;;;6.57;;
7899;SDS011;3995;50.856;4.404;2023-03-20T04:41:01;14.47;;;7.00;;
7899;SDS011;3995;50.856;4.404;2023-03-20T04:43:28;13.48;;;6.32;;
7899;SDS011;3995;50.856;4.404;2023-03-20T04:45:55;10.23;;;6.00;;
7899;SDS011;3995;50.856;4.404;2023-03-20T04:48:25;8.75;;;5.80;;
7899;SDS011;3995;50.856;4.404;2023-03-20T04:50:53;10.73;;;6.13;;
7899;SDS011;3995;50.856;4.404;2023-03-20T04:53:20;8.47;;;5.57;;
7899;SDS011;3995;50.856;4.404;2023-03-20T04:55:47;10.93;;;6.30;;
7899;SDS011;3995;50.856;4.404;2023-03-20T04:58:15;12.45;;;6.53;;
7899;SDS011;3995;50.856;4.404;2023-03-20T05:00:42;7.85;;;5.25;;
7899;SDS011;3995;50.856;4.404;2023-03-20T05:03:10;19.53;;;6.17;;
7899;SDS011;3995;50.856;4.404;2023-03-20T05:05:39;11.43;;;6.00;;
7899;SDS011;3995;50.856;4.404;2023-03-20T05:08:06;8.75;;;5.43;;
7899;SDS011;3995;50.856;4.404;2023-03-20T05:10:33;13.85;;;5.22;;
7899;SDS011;3995;50.856;4.404;2023-03-20T05:13:00;12.40;;;5.90;;
7899;SDS011;3995;50.856;4.404;2023-03-20T05:15:27;9.63;;;4.77;;
7899;SDS011;3995;50.856;4.404;2023-03-20T05:17:54;11.17;;;5.90;;
7899;SDS011;3995;50.856;4.404;2023-03-20T05:20:21;9.47;;;5.40;;
7899;SDS011;3995;50.856;4.404;2023-03-20T05:22:50;10.75;;;5.20;;
7899;SDS011;3995;50.856;4.404;2023-03-20T05:25:17;7.15;;;4.60;;
7899;SDS011;3995;50.856;4.404;2023-03-20T05:27:45;9.77;;;4.97;;
7899;SDS011;3995;50.856;4.404;2023-03-20T05:30:13;10.73;;;4.97;;
7899;SDS011;3995;50.856;4.404;2023-03-20T05:32:40;12.50;;;5.27;;
7899;SDS011;3995;50.856;4.404;2023-03-20T05:35:08;10.63;;;5.30;;
7899;SDS011;3995;50.856;4.404;2023-03-20T05:37:36;13.27;;;6.17;;
7899;SDS011;3995;50.856;4.404;2023-03-20T05:40:05;10.35;;;4.60;;
7899;SDS011;3995;50.856;4.404;2023-03-20T05:42:33;10.68;;;5.47;;
7899;SDS011;3995;50.856;4.404;2023-03-20T05:45:00;9.53;;;4.50;;
7899;SDS011;3995;50.856;4.404;2023-03-20T05:47:28;12.60;;;5.70;;
7899;SDS011;3995;50.856;4.404;2023-03-20T05:49:55;10.40;;;4.73;;
7899;SDS011;3995;50.856;4.404;2023-03-20T05:52:23;15.40;;;5.83;;
7899;SDS011;3995;50.856;4.404;2023-03-20T05:54:50;10.00;;;4.88;;
7899;SDS011;3995;50.856;4.404;2023-03-20T05:57:19;14.18;;;5.03;;
7899;SDS011;3995;50.856;4.404;2023-03-20T05:59:46;11.20;;;5.07;;
7899;SDS011;3995;50.856;4.404;2023-03-20T06:02:14;7.05;;;4.60;;
7899;SDS011;3995;50.856;4.404;2023-03-20T06:04:41;8.65;;;4.40;;
7899;SDS011;3995;50.856;4.404;2023-03-20T06:07:08;7.40;;;4.00;;
7899;SDS011;3995;50.856;4.404;2023-03-20T06:09:35;7.53;;;4.53;;
7899;SDS011;3995;50.856;4.404;2023-03-20T06:12:03;6.55;;;3.80;;
7899;SDS011;3995;50.856;4.404;2023-03-20T06:14:32;9.60;;;4.40;;
7899;SDS011;3995;50.856;4.404;2023-03-20T06:16:59;12.43;;;4.70;;
7899;SDS011;3995;50.856;4.404;2023-03-20T06:19:26;14.00;;;4.77;;
7899;SDS011;3995;50.856;4.404;2023-03-20T06:21:53;8.82;;;4.15;;
7899;SDS011;3995;50.856;4.404;2023-03-20T06:24:20;10.23;;;4.18;;
7899;SDS011;3995;50.856;4.404;2023-03-20T06:26:48;11.53;;;4.20;;
7899;SDS011;3995;50.856;4.404;2023-03-20T06:29:15;15.33;;;4.50;;
7899;SDS011;3995;50.856;4.404;2023-03-20T06:31:44;14.07;;;4.67;;
7899;SDS011;3995;50.856;4.404;2023-03-20T06:34:11;9.33;;;4.00;;
7899;SDS011;3995;50.856;4.404;2023-03-20T06:36:38;10.05;;;3.60;;
7899;SDS011;3995;50.856;4.404;2023-03-20T06:39:06;13.80;;;3.90;;
7899;SDS011;3995;50.856;4.404;2023-03-20T06:41:33;11.47;;;3.87;;
7899;SDS011;3995;50.856;4.404;2023-03-20T06:44:00;11.30;;;3.93;;
7899;SDS011;3995;50.856;4.404;2023-03-20T06:46:27;11.07;;;4.20;;
7899;SDS011;3995;50.856;4.404;2023-03-20T06:48:56;15.07;;;5.05;;
7899;SDS011;3995;50.856;4.404;2023-03-20T06:51:24;9.75;;;4.45;;
7899;SDS011;3995;50.856;4.404;2023-03-20T06:53:51;14.57;;;4.40;;
7899;SDS011;3995;50.856;4.404;2023-03-20T06:56:18;12.40;;;4.07;;
7899;SDS011;3995;50.856;4.404;2023-03-20T06:58:46;9.17;;;3.90;;
7899;SDS011;3995;50.856;4.404;2023-03-20T07:01:14;6.28;;;3.58;;
7899;SDS011;3995;50.856;4.404;2023-03-20T07:03:43;10.50;;;3.90;;
7899;SDS011;3995;50.856;4.404;2023-03-20T07:06:12;12.20;;;4.20;;
7899;SDS011;3995;50.856;4.404;2023-03-20T07:08:39;15.93;;;4.33;;
7899;SDS011;3995;50.856;4.404;2023-03-20T07:11:06;9.97;;;3.40;;
7899;SDS011;3995;50.856;4.404;2023-03-20T07:13:34;14.97;;;4.53;;
7899;SDS011;3995;50.856;4.404;2023-03-20T07:16:02;9.65;;;3.53;;
7899;SDS011;3995;50.856;4.404;2023-03-20T07:18:30;13.23;;;4.00;;
7899;SDS011;3995;50.856;4.404;2023-03-20T07:20:58;10.33;;;3.93;;
7899;SDS011;3995;50.856;4.404;2023-03-20T07:23:28;12.23;;;4.10;;
7899;SDS011;3995;50.856;4.404;2023-03-20T07:25:56;11.18;;;4.57;;
7899;SDS011;3995;50.856;4.404;2023-03-20T07:28:23;8.32;;;3.60;;
7899;SDS011;3995;50.856;4.404;2023-03-20T07:30:51;10.55;;;4.13;;
7899;SDS011;3995;50.856;4.404;2023-03-20T07:33:18;8.13;;;3.90;;
7899;SDS011;3995;50.856;4.404;2023-03-20T07:35:46;11.30;;;3.87;;
7899;SDS011;3995;50.856;4.404;2023-03-20T07:38:17;22.10;;;3.83;;
7899;SDS011;3995;50.856;4.404;2023-03-20T07:40:45;12.13;;;4.40;;
7899;SDS011;3995;50.856;4.404;2023-03-20T07:43:13;12.10;;;4.67;;
7899;SDS011;3995;50.856;4.404;2023-03-20T07:45:40;13.13;;;3.97;;
7899;SDS011;3995;50.856;4.404;2023-03-20T07:48:07;7.60;;;3.63;;
7899;SDS011;3995;50.856;4.404;2023-03-20T07:50:35;8.27;;;3.70;;
7899;SDS011;3995;50.856;4.404;2023-03-20T07:53:02;11.00;;;4.10;;
7899;SDS011;3995;50.856;4.404;2023-03-20T07:55:29;10.47;;;4.07;;
7899;SDS011;3995;50.856;4.404;2023-03-20T07:57:58;9.45;;;3.75;;
7899;SDS011;3995;50.856;4.404;2023-03-20T08:00:25;14.87;;;4.67;;
7899;SDS011;3995;50.856;4.404;2023-03-20T08:02:53;10.43;;;4.10;;
7899;SDS011;3995;50.856;4.404;2023-03-20T08:05:21;9.10;;;3.97;;
7899;SDS011;3995;50.856;4.404;2023-03-20T08:07:48;12.50;;;4.67;;
7899;SDS011;3995;50.856;4.404;2023-03-20T08:10:15;8.70;;;3.90;;
7899;SDS011;3995;50.856;4.404;2023-03-20T08:12:43;6.70;;;3.03;;
7899;SDS011;3995;50.856;4.404;2023-03-20T08:15:12;12.90;;;4.50;;
7899;SDS011;3995;50.856;4.404;2023-03-20T08:17:42;9.27;;;3.43;;
7899;SDS011;3995;50.856;4.404;2023-03-20T08:20:10;17.57;;;3.50;;
7899;SDS011;3995;50.856;4.404;2023-03-20T08:22:39;13.50;;;3.50;;
7899;SDS011;3995;50.856;4.404;2023-03-20T08:25:07;11.90;;;3.40;;
7899;SDS011;3995;50.856;4.404;2023-03-20T08:27:35;9.20;;;3.50;;
7899;SDS011;3995;50.856;4.404;2023-03-20T08:30:03;13.68;;;3.72;;
7899;SDS011;3995;50.856;4.404;2023-03-20T08:32:32;11.18;;;3.75;;
7899;SDS011;3995;50.856;4.404;2023-03-20T08:35:00;8.52;;;3.00;;
7899;SDS011;3995;50.856;4.404;2023-03-20T08:37:27;15.48;;;3.47;;
7899;SDS011;3995;50.856;4.404;2023-03-20T08:39:54;12.07;;;3.75;;
7899;SDS011;3995;50.856;4.404;2023-03-20T08:42:22;10.50;;;4.63;;
7899;SDS011;3995;50.856;4.404;2023-03-20T08:44:49;12.35;;;5.50;;
7899;SDS011;3995;50.856;4.404;2023-03-20T08:47:16;11.43;;;4.53;;
7899;SDS011;3995;50.856;4.404;2023-03-20T08:49:45;14.98;;;4.25;;
7899;SDS011;3995;50.856;4.404;2023-03-20T08:52:12;22.33;;;5.77;;
7899;SDS011;3995;50.856;4.404;2023-03-20T08:54:40;15.15;;;4.82;;
7899;SDS011;3995;50.856;4.404;2023-03-20T08:57:07;11.83;;;4.63;;
7899;SDS011;3995;50.856;4.404;2023-03-20T08:59:37;16.30;;;4.60;;
7899;SDS011;3995;50.856;4.404;2023-03-20T09:02:09;13.05;;;4.40;;
7899;SDS011;3995;50.856;4.404;2023-03-20T09:04:36;16.08;;;4.82;;
7899;SDS011;3995;50.856;4.404;2023-03-20T09:07:05;14.10;;;4.50;;
7899;SDS011;3995;50.856;4.404;2023-03-20T09:09:32;21.37;;;10.30;;
7899;SDS011;3995;50.856;4.404;2023-03-20T09:12:00;16.27;;;7.35;;
7899;SDS011;3995;50.856;4.404;2023-03-20T09:14:27;16.83;;;8.00;;
7899;SDS011;3995;50.856;4.404;2023-03-20T09:16:54;14.37;;;4.47;;
7899;SDS011;3995;50.856;4.404;2023-03-20T09:19:22;15.88;;;5.43;;
7899;SDS011;3995;50.856;4.404;2023-03-20T09:21:49;10.90;;;4.15;;
7899;SDS011;3995;50.856;4.404;2023-03-20T09:24:18;15.70;;;4.30;;
7899;SDS011;3995;50.856;4.404;2023-03-20T09:26:45;12.77;;;5.27;;
7899;SDS011;3995;50.856;4.404;2023-03-20T09:29:12;18.98;;;6.18;;
7899;SDS011;3995;50.856;4.404;2023-03-20T09:31:39;11.70;;;4.13;;
7899;SDS011;3995;50.856;4.404;2023-03-20T09:34:07;19.60;;;4.90;;
7899;SDS011;3995;50.856;4.404;2023-03-20T09:36:34;13.27;;;4.50;;
7899;SDS011;3995;50.856;4.404;2023-03-20T09:39:01;10.65;;;4.15;;
7899;SDS011;3995;50.856;4.404;2023-03-20T09:41:31;10.38;;;4.18;;
7899;SDS011;3995;50.856;4.404;2023-03-20T09:44:07;8.07;;;3.73;;
7899;SDS011;3995;50.856;4.404;2023-03-20T09:46:51;6.43;;;3.87;;
7899;SDS011;3995;50.856;4.404;2023-03-20T09:49:35;13.33;;;3.97;;
7899;SDS011;3995;50.856;4.404;2023-03-20T09:52:15;8.03;;;4.33;;
7899;SDS011;3995;50.856;4.404;2023-03-20T09:54:48;16.43;;;4.57;;
7899;SDS011;3995;50.856;4.404;2023-03-20T09:57:21;12.67;;;4.30;;
7899;SDS011;3995;50.856;4.404;2023-03-20T09:59:52;14.13;;;4.30;;
7899;SDS011;3995;50.856;4.404;2023-03-20T10:02:24;12.90;;;4.53;;
7899;SDS011;3995;50.856;4.404;2023-03-20T10:05:02;11.17;;;4.00;;
7899;SDS011;3995;50.856;4.404;2023-03-20T10:07:38;21.90;;;4.85;;
7899;SDS011;3995;50.856;4.404;2023-03-20T10:10:05;12.43;;;4.30;;
7899;SDS011;3995;50.856;4.404;2023-03-20T10:12:41;18.20;;;5.10;;
7899;SDS011;3995;50.856;4.404;2023-03-20T10:15:23;14.88;;;4.43;;
7899;SDS011;3995;50.856;4.404;2023-03-20T10:18:01;8.90;;;3.60;;
7899;SDS011;3995;50.856;4.404;2023-03-20T10:20:41;9.80;;;3.93;;
7899;SDS011;3995;50.856;4.404;2023-03-20T10:23:15;14.30;;;3.30;;
7899;SDS011;3995;50.856;4.404;2023-03-20T10:25:49;9.07;;;3.90;;
7899;SDS011;3995;50.856;4.404;2023-03-20T10:28:21;10.47;;;4.37;;
7899;SDS011;3995;50.856;4.404;2023-03-20T10:30:57;10.27;;;3.83;;
7899;SDS011;3995;50.856;4.404;2023-03-20T10:33:38;11.02;;;3.85;;
7899;SDS011;3995;50.856;4.404;2023-03-20T10:36:16;13.80;;;3.50;;
7899;SDS011;3995;50.856;4.404;2023-03-20T10:39:00;8.23;;;3.63;;
7899;SDS011;3995;50.856;4.404;2023-03-20T10:41:36;19.90;;;4.17;;
7899;SDS011;3995;50.856;4.404;2023-03-20T10:44:09;16.13;;;4.47;;
7899;SDS011;3995;50.856;4.404;2023-03-20T10:46:42;9.50;;;3.73;;
7899;SDS011;3995;50.856;4.404;2023-03-20T10:49:15;12.80;;;3.90;;
7899;SDS011;3995;50.856;4.404;2023-03-20T10:51:46;13.73;;;3.83;;
7899;SDS011;3995;50.856;4.404;2023-03-20T10:54:22;13.13;;;4.00;;
7899;SDS011;3995;50.856;4.404;2023-03-20T10:56:53;13.27;;;4.60;;
7899;SDS011;3995;50.856;4.404;2023-03-20T10:59:24;11.00;;;3.10;;
7899;SDS011;3995;50.856;4.404;2023-03-20T11:01:54;13.77;;;4.03;;
7899;SDS011;3995;50.856;4.404;2023-03-20T11:04:21;12.43;;;3.53;;
7899;SDS011;3995;50.856;4.404;2023-03-20T11:06:50;7.63;;;3.50;;
7899;SDS011;3995;50.856;4.404;2023-03-20T11:09:22;13.13;;;3.80;;
7899;SDS011;3995;50.856;4.404;2023-03-20T11:11:51;27.70;;;4.37;;
7899;SDS011;3995;50.856;4.404;2023-03-20T11:14:22;9.90;;;4.17;;
7899;SDS011;3995;50.856;4.404;2023-03-20T11:16:52;11.97;;;3.40;;
7899;SDS011;3995;50.856;4.404;2023-03-20T11:19:21;13.53;;;3.40;;
7899;SDS011;3995;50.856;4.404;2023-03-20T11:21:50;14.23;;;3.67;;
7899;SDS011;3995;50.856;4.404;2023-03-20T11:24:24;11.83;;;3.17;;
7899;SDS011;3995;50.856;4.404;2023-03-20T11:26:54;16.73;;;2.97;;
7899;SDS011;3995;50.856;4.404;2023-03-20T11:29:33;8.83;;;3.20;;
7899;SDS011;3995;50.856;4.404;2023-03-20T11:32:04;21.60;;;3.90;;
7899;SDS011;3995;50.856;4.404;2023-03-20T11:34:35;12.33;;;3.87;;
7899;SDS011;3995;50.856;4.404;2023-03-20T11:37:05;8.40;;;3.30;;
7899;SDS011;3995;50.856;4.404;2023-03-20T11:39:55;9.00;;;3.30;;
7899;SDS011;3995;50.856;4.404;2023-03-20T11:42:24;10.03;;;3.13;;
7899;SDS011;3995;50.856;4.404;2023-03-20T11:44:58;13.93;;;3.53;;
7899;SDS011;3995;50.856;4.404;2023-03-20T11:47:27;7.77;;;3.50;;
7899;SDS011;3995;50.856;4.404;2023-03-20T11:49:57;5.13;;;2.60;;
7899;SDS011;3995;50.856;4.404;2023-03-20T11:52:26;6.07;;;2.63;;
7899;SDS011;3995;50.856;4.404;2023-03-20T11:54:57;13.07;;;4.20;;
7899;SDS011;3995;50.856;4.404;2023-03-20T11:57:31;35.13;;;13.00;;
7899;SDS011;3995;50.856;4.404;2023-03-20T12:00:03;9.30;;;3.77;;
7899;SDS011;3995;50.856;4.404;2023-03-20T12:02:32;23.27;;;3.87;;
7899;SDS011;3995;50.856;4.404;2023-03-20T12:05:05;9.83;;;3.13;;
7899;SDS011;3995;50.856;4.404;2023-03-20T12:07:45;11.03;;;3.93;;
7899;SDS011;3995;50.856;4.404;2023-03-20T12:10:16;8.93;;;3.40;;
7899;SDS011;3995;50.856;4.404;2023-03-20T12:12:44;9.10;;;3.03;;
7899;SDS011;3995;50.856;4.404;2023-03-20T12:15:16;7.17;;;3.60;;
7899;SDS011;3995;50.856;4.404;2023-03-20T12:17:50;7.13;;;3.20;;
7899;SDS011;3995;50.856;4.404;2023-03-20T12:20:29;9.03;;;3.10;;
7899;SDS011;3995;50.856;4.404;2023-03-20T12:23:01;8.73;;;3.67;;
7899;SDS011;3995;50.856;4.404;2023-03-20T12:25:39;11.07;;;4.20;;
7899;SDS011;3995;50.856;4.404;2023-03-20T12:28:13;11.07;;;3.70;;
7899;SDS011;3995;50.856;4.404;2023-03-20T12:30:53;8.30;;;4.03;;
7899;SDS011;3995;50.856;4.404;2023-03-20T12:33:33;15.80;;;4.20;;
7899;SDS011;3995;50.856;4.404;2023-03-20T12:36:10;8.43;;;3.93;;
7899;SDS011;3995;50.856;4.404;2023-03-20T12:38:40;9.50;;;4.00;;
7899;SDS011;3995;50.856;4.404;2023-03-20T12:41:10;10.47;;;3.97;;
7899;SDS011;3995;50.856;4.404;2023-03-20T12:46:35;9.00;;;3.60;;
7899;SDS011;3995;50.856;4.404;2023-03-20T12:49:11;10.63;;;4.90;;
7899;SDS011;3995;50.856;4.404;2023-03-20T12:51:50;14.87;;;5.10;;
7899;SDS011;3995;50.856;4.404;2023-03-20T12:54:38;12.73;;;6.33;;
7899;SDS011;3995;50.856;4.404;2023-03-20T12:57:18;20.00;;;4.70;;
7899;SDS011;3995;50.856;4.404;2023-03-20T12:59:54;16.80;;;4.00;;
7899;SDS011;3995;50.856;4.404;2023-03-20T13:02:37;10.00;;;4.23;;
7899;SDS011;3995;50.856;4.404;2023-03-20T13:05:16;15.70;;;4.40;;
7899;SDS011;3995;50.856;4.404;2023-03-20T13:07:56;13.60;;;5.00;;
7899;SDS011;3995;50.856;4.404;2023-03-20T13:10:36;13.33;;;4.50;;
7899;SDS011;3995;50.856;4.404;2023-03-20T13:13:10;14.73;;;4.67;;
7899;SDS011;3995;50.856;4.404;2023-03-20T13:15:48;18.93;;;5.60;;
7899;SDS011;3995;50.856;4.404;2023-03-20T13:18:27;19.33;;;4.73;;
7899;SDS011;3995;50.856;4.404;2023-03-20T13:21:07;10.00;;;4.90;;
7899;SDS011;3995;50.856;4.404;2023-03-20T13:23:40;8.67;;;4.00;;
7899;SDS011;3995;50.856;4.404;2023-03-20T13:26:19;13.80;;;5.20;;
7899;SDS011;3995;50.856;4.404;2023-03-20T13:28:58;11.80;;;4.67;;
7899;SDS011;3995;50.856;4.404;2023-03-20T13:31:33;15.03;;;4.77;;
7899;SDS011;3995;50.856;4.404;2023-03-20T13:34:11;13.60;;;5.17;;
7899;SDS011;3995;50.856;4.404;2023-03-20T13:36:52;13.40;;;5.00;;
7899;SDS011;3995;50.856;4.404;2023-03-20T13:39:32;16.67;;;5.17;;
7899;SDS011;3995;50.856;4.404;2023-03-20T13:42:03;11.77;;;5.10;;
7899;SDS011;3995;50.856;4.404;2023-03-20T13:44:37;7.77;;;4.43;;
7899;SDS011;3995;50.856;4.404;2023-03-20T13:47:09;9.30;;;4.97;;
7899;SDS011;3995;50.856;4.404;2023-03-20T13:49:42;15.93;;;5.87;;
7899;SDS011;3995;50.856;4.404;2023-03-20T13:52:18;13.60;;;4.67;;
7899;SDS011;3995;50.856;4.404;2023-03-20T13:55:00;10.77;;;4.80;;
7899;SDS011;3995;50.856;4.404;2023-03-20T13:57:46;10.37;;;4.53;;
7899;SDS011;3995;50.856;4.404;2023-03-20T14:00:26;8.70;;;4.30;;
7899;SDS011;3995;50.856;4.404;2023-03-20T14:03:05;12.70;;;5.17;;
7899;SDS011;3995;50.856;4.404;2023-03-20T14:05:42;14.93;;;5.53;;
7899;SDS011;3995;50.856;4.404;2023-03-20T14:08:20;15.73;;;4.83;;
7899;SDS011;3995;50.856;4.404;2023-03-20T14:10:53;11.13;;;4.80;;
7899;SDS011;3995;50.856;4.404;2023-03-20T14:13:21;13.60;;;4.00;;
7899;SDS011;3995;50.856;4.404;2023-03-20T14:15:52;15.77;;;5.03;;
7899;SDS011;3995;50.856;4.404;2023-03-20T14:18:21;11.07;;;5.53;;
7899;SDS011;3995;50.856;4.404;2023-03-20T14:20:53;15.50;;;4.70;;
7899;SDS011;3995;50.856;4.404;2023-03-20T14:23:27;11.87;;;5.13;;
7899;SDS011;3995;50.856;4.404;2023-03-20T14:26:00;13.07;;;5.50;;
7899;SDS011;3995;50.856;4.404;2023-03-20T14:28:40;13.73;;;5.53;;
7899;SDS011;3995;50.856;4.404;2023-03-20T14:31:12;7.80;;;4.80;;
7899;SDS011;3995;50.856;4.404;2023-03-20T14:33:52;13.20;;;5.20;;
7899;SDS011;3995;50.856;4.404;2023-03-20T14:36:27;10.23;;;5.50;;
7899;SDS011;3995;50.856;4.404;2023-03-20T14:39:11;13.60;;;4.97;;
7899;SDS011;3995;50.856;4.404;2023-03-20T14:41:55;16.10;;;5.40;;
7899;SDS011;3995;50.856;4.404;2023-03-20T14:44:32;13.10;;;4.63;;
7899;SDS011;3995;50.856;4.404;2023-03-20T14:47:16;12.10;;;4.53;;
7899;SDS011;3995;50.856;4.404;2023-03-20T14:49:50;12.07;;;4.60;;
7899;SDS011;3995;50.856;4.404;2023-03-20T14:52:41;21.33;;;6.20;;
7899;SDS011;3995;50.856;4.404;2023-03-20T14:55:33;13.73;;;5.17;;
7899;SDS011;3995;50.856;4.404;2023-03-20T14:58:33;11.63;;;5.07;;
7899;SDS011;3995;50.856;4.404;2023-03-20T15:01:23;13.30;;;4.40;;
7899;SDS011;3995;50.856;4.404;2023-03-20T15:04:07;12.80;;;5.17;;
7899;SDS011;3995;50.856;4.404;2023-03-20T15:06:42;8.33;;;4.90;;
7899;SDS011;3995;50.856;4.404;2023-03-20T15:09:16;14.67;;;4.90;;
7899;SDS011;3995;50.856;4.404;2023-03-20T15:11:47;13.43;;;5.70;;
7899;SDS011;3995;50.856;4.404;2023-03-20T15:14:17;15.03;;;5.10;;
7899;SDS011;3995;50.856;4.404;2023-03-20T15:16:48;13.27;;;4.90;;
7899;SDS011;3995;50.856;4.404;2023-03-20T15:19:26;11.67;;;4.90;;
7899;SDS011;3995;50.856;4.404;2023-03-20T15:21:54;23.00;;;5.00;;
7899;SDS011;3995;50.856;4.404;2023-03-20T15:24:24;15.90;;;6.63;;
7899;SDS011;3995;50.856;4.404;2023-03-20T15:26:53;7.20;;;4.63;;
7899;SDS011;3995;50.856;4.404;2023-03-20T15:29:21;10.33;;;5.27;;
7899;SDS011;3995;50.856;4.404;2023-03-20T15:31:53;12.20;;;5.97;;
7899;SDS011;3995;50.856;4.404;2023-03-20T15:34:23;18.43;;;5.30;;
7899;SDS011;3995;50.856;4.404;2023-03-20T15:36:54;18.33;;;5.57;;
7899;SDS011;3995;50.856;4.404;2023-03-20T15:39:25;10.83;;;5.30;;
7899;SDS011;3995;50.856;4.404;2023-03-20T15:41:54;7.90;;;4.80;;
7899;SDS011;3995;50.856;4.404;2023-03-20T15:44:23;16.67;;;6.00;;
7899;SDS011;3995;50.856;4.404;2023-03-20T15:46:53;14.73;;;5.63;;